Airfield :
LOGIN :

Register | Disclaimer

   EN    FR    IT 

 










Legend :    VFR   Marginal VFR   IFR   Intensive IFR   Very Intensive IFR
Visi :
Ceiling :
>= 8 km
>= 3000ft
5 to 8 km
1000 to 3000 ft
1500m to 5 km
500 to 1000 ft
800 to 1500m
200 to 500 ft
< 800m
< 200 ft
Symbols :   Thunderstorms  Fog  Heavy snow  Heavy precipitations  Wind > 20 kt
SIGMETs :     Misc.  Thunderstorms  Icing  Turbulence  Mountain Waves  Volcanic Ashes







- Airport Elevation : 1079 ft


ETIK - Illesheim Air Base

CURRENT METAR :
  • 190756Z AUTO 23006KT 9999 BKN050 06/02 A3011 RMK AO2 SLP210 T00610018 $

EXPIRED METARs :
  • 190656Z AUTO 24006KT 9999 CLR 03/01 A3010 RMK AO2 SLP210 T00300007 $
  • 190556Z AUTO 23008KT 9999 CLR 04/01 A3009 RMK AO2 SLP204 T00360005 10050 21021 50003 $

TAF TAF ETIK
Valid from the 19 at 06:00 until the 20 at 12:00 UTC


190607Z 1906/2012 25006KT 9999 SKC QNH3007INS
BECMG 1911/1912 25010G20KT 8000 -RA BKN015 OVC025 620404 QNH3009INS
BECMG 1915/1916 26009KT 9999 NSW SCT015 QNH3011INS TX09/1914Z TN00/1906Z
No reported NOTAMs for that airfield.



MET'MAP, your aeronautical weather chart ! - Copyright ORBIFLY December 2007 - Disclaimer

ORBIFLY MET'MAP TEAM :

Programming & Development : Alexandra Zaïnal
Concept & Development : Baudouin d'Aumeries
Co-Development & Prog : Marc-Olivier Méhu
Technical & hardware support : Manuel Goepfert

Contact : metmap@orbifly.com




SOURCES & CREDITS :

   NOAA